createdAt,value
2022-09-28T00:00:20.749Z,98676.04
2022-09-28T00:01:29.007Z,98674.03
2022-09-28T00:02:37.070Z,98686.41
2022-09-28T00:03:40.563Z,98680.89
2022-09-28T00:04:43.357Z,98678.76
2022-09-28T00:05:46.007Z,98673.72
2022-09-28T00:06:50.128Z,98679.59
2022-09-28T00:07:55.646Z,98673.53
2022-09-28T00:09:00.074Z,98675.20
2022-09-28T00:10:04.309Z,98674.20
2022-09-28T00:11:08.763Z,98674.35
2022-09-28T00:12:12.049Z,98679.16
2022-09-28T00:13:15.260Z,98672.63
2022-09-28T00:14:18.526Z,98674.13
2022-09-28T00:15:21.624Z,98675.97
2022-09-28T00:16:26.249Z,98686.19
2022-09-28T00:17:29.566Z,98685.18
2022-09-28T00:18:32.768Z,98680.66
2022-09-28T00:19:37.294Z,98679.66
2022-09-28T00:20:40.718Z,98684.33
2022-09-28T00:21:45.507Z,98686.51
2022-09-28T00:22:48.761Z,98687.17
2022-09-28T00:24:10.543Z,98686.00
2022-09-28T00:25:16.720Z,98685.62
2022-09-28T00:26:22.910Z,98685.11
2022-09-28T00:27:26.708Z,98682.48
2022-09-28T00:28:30.306Z,98676.30
2022-09-28T00:29:37.395Z,98678.13
2022-09-28T00:30:40.802Z,98678.13
2022-09-28T00:31:44.645Z,98676.79
2022-09-28T00:32:47.931Z,98678.62
2022-09-28T00:33:56.830Z,98676.41
2022-09-28T00:35:00.856Z,98680.09
2022-09-28T00:36:03.208Z,98677.42
2022-09-28T00:37:08.378Z,98681.77
2022-09-28T00:38:11.890Z,98685.94
2022-09-28T00:39:16.528Z,98689.28
2022-09-28T00:40:19.978Z,98688.77
2022-09-28T00:41:27.731Z,98697.14
2022-09-28T00:42:31.225Z,98696.97
2022-09-28T00:43:35.253Z,98702.67
2022-09-28T00:44:40.436Z,98701.17
2022-09-28T00:45:45.064Z,98698.32
2022-09-28T00:46:55.053Z,98697.48
2022-09-28T00:47:59.509Z,98701.00
2022-09-28T00:49:04.999Z,98703.67
2022-09-28T00:50:22.299Z,98699.65
2022-09-28T00:51:28.246Z,98705.84
2022-09-28T00:52:36.623Z,98695.97
2022-09-28T00:53:42.623Z,98688.27
2022-09-28T00:54:49.210Z,98684.45
2022-09-28T00:55:56.129Z,98687.95
2022-09-28T00:57:01.599Z,98684.94
2022-09-28T00:58:07.621Z,98681.25
2022-09-28T00:59:11.647Z,98676.58
2022-09-28T01:00:15.780Z,98667.42
2022-09-28T01:01:20.364Z,98672.61
2022-09-28T01:02:23.655Z,98670.62
2022-09-28T01:03:30.147Z,98669.44
2022-09-28T01:05:40.256Z,98667.77
2022-09-28T01:06:46.002Z,98665.27
2022-09-28T01:07:49.923Z,98672.29
2022-09-28T01:08:54.342Z,98679.66
2022-09-28T01:09:58.083Z,98676.81
2022-09-28T01:11:01.686Z,98679.81
2022-09-28T01:12:05.185Z,98674.91
2022-09-28T01:13:17.057Z,98665.88
2022-09-28T01:14:20.864Z,98673.56
2022-09-28T01:15:27.234Z,98670.45
2022-09-28T01:16:33.924Z,98670.94
2022-09-28T01:17:44.867Z,98676.30
2022-09-28T01:19:08.412Z,98672.78
2022-09-28T01:20:12.544Z,98674.91
2022-09-28T01:21:23.882Z,98677.08
2022-09-28T01:22:28.755Z,98675.75
2022-09-28T01:23:39.562Z,98672.06
2022-09-28T01:24:47.778Z,98679.58
2022-09-28T01:25:53.306Z,98674.22
2022-09-28T01:27:01.198Z,98673.56
2022-09-28T01:28:08.842Z,98674.40
2022-09-28T01:29:14.942Z,98678.06
2022-09-28T01:30:20.762Z,98675.23
2022-09-28T01:31:29.409Z,98678.58
2022-09-28T01:32:37.798Z,98673.37
2022-09-28T01:33:42.040Z,98681.39
2022-09-28T01:35:05.387Z,98676.88
2022-09-28T01:36:10.671Z,98677.88
2022-09-28T01:37:16.770Z,98680.19
2022-09-28T01:38:25.022Z,98670.48
2022-09-28T01:39:33.389Z,98674.89
2022-09-28T01:40:38.290Z,98671.44
2022-09-28T01:41:47.319Z,98673.62
2022-09-28T01:42:52.575Z,98664.58
2022-09-28T01:43:58.855Z,98669.56
2022-09-28T01:45:04.084Z,98673.91
2022-09-28T01:46:14.734Z,98675.41
2022-09-28T01:47:21.112Z,98670.71
2022-09-28T01:48:43.628Z,98670.77
2022-09-28T01:49:59.674Z,98669.44
2022-09-28T01:51:04.853Z,98673.45
2022-09-28T01:52:28.725Z,98674.11
2022-09-28T01:53:40.940Z,98674.45
2022-09-28T01:54:49.601Z,98675.58
2022-09-28T01:55:58.811Z,98678.25
2022-09-28T01:57:04.251Z,98674.73
2022-09-28T01:58:11.204Z,98674.05
2022-09-28T01:59:21.715Z,98674.05
2022-09-28T02:00:27.027Z,98685.08
2022-09-28T02:01:33.635Z,98677.05
2022-09-28T02:02:41.217Z,98679.73
2022-09-28T02:03:48.583Z,98676.88
2022-09-28T02:04:52.922Z,98679.91
2022-09-28T02:05:58.205Z,98670.86
2022-09-28T02:07:06.618Z,98674.72
2022-09-28T02:08:12.021Z,98682.09
2022-09-28T02:09:17.377Z,98668.38
2022-09-28T02:10:25.651Z,98668.70
2022-09-28T02:11:30.653Z,98678.06
2022-09-28T02:12:37.972Z,98672.70
2022-09-28T02:13:44.332Z,98678.41
2022-09-28T02:14:51.007Z,98677.22
2022-09-28T02:15:57.197Z,98678.06
2022-09-28T02:17:01.644Z,98678.72
2022-09-28T02:18:05.795Z,98674.37
2022-09-28T02:19:11.586Z,98677.71
2022-09-28T02:20:15.901Z,98673.37
2022-09-28T02:21:24.047Z,98672.16
2022-09-28T02:22:30.155Z,98681.20
2022-09-28T02:23:34.699Z,98671.14
2022-09-28T02:24:39.672Z,98674.00
2022-09-28T02:25:46.194Z,98677.34
2022-09-28T02:26:51.842Z,98673.16
2022-09-28T02:28:01.238Z,98669.85
2022-09-28T02:29:05.495Z,98667.80
2022-09-28T02:30:09.347Z,98664.95
2022-09-28T02:31:14.357Z,98666.34
2022-09-28T02:32:19.248Z,98662.66
2022-09-28T02:33:24.878Z,98669.88
2022-09-28T02:34:28.333Z,98661.19
2022-09-28T02:35:30.805Z,98665.36
2022-09-28T02:36:35.344Z,98661.50
2022-09-28T02:37:39.414Z,98665.36
2022-09-28T02:38:42.573Z,98669.05
2022-09-28T02:39:47.721Z,98665.02
2022-09-28T02:40:53.887Z,98667.52
2022-09-28T02:42:04.370Z,98667.34
2022-09-28T02:43:15.384Z,98668.18
2022-09-28T02:44:21.191Z,98665.97
2022-09-28T02:45:31.195Z,98670.20
2022-09-28T02:46:48.250Z,98670.05
2022-09-28T02:48:02.248Z,98676.95
2022-09-28T02:49:21.531Z,98682.31
2022-09-28T02:50:22.487Z,98689.36
2022-09-28T02:51:35.102Z,98680.66
2022-09-28T02:52:43.312Z,98680.48
2022-09-28T02:53:49.390Z,98681.65
2022-09-28T02:55:01.782Z,98679.26
2022-09-28T02:56:21.766Z,98685.33
2022-09-28T02:57:27.176Z,98671.78
2022-09-28T02:58:54.275Z,98681.94
2022-09-28T03:00:03.427Z,98687.12
2022-09-28T03:01:11.464Z,98681.25
2022-09-28T03:02:16.869Z,98684.42
2022-09-28T03:03:39.218Z,98682.58
2022-09-28T03:04:44.388Z,98679.92
2022-09-28T03:06:00.845Z,98679.75
2022-09-28T03:07:14.695Z,98678.58
2022-09-28T03:08:22.058Z,98685.77
2022-09-28T03:09:29.952Z,98683.75
2022-09-28T03:10:35.231Z,98681.08
2022-09-28T03:11:39.467Z,98677.22
2022-09-28T03:12:46.012Z,98679.06
2022-09-28T03:13:52.221Z,98676.05
2022-09-28T03:15:17.600Z,98678.52
2022-09-28T03:16:21.366Z,98676.39
2022-09-28T03:17:25.611Z,98667.86
2022-09-28T03:18:28.433Z,98666.52
2022-09-28T03:19:35.129Z,98672.36
2022-09-28T03:20:38.438Z,98669.48
2022-09-28T03:21:45.568Z,98671.31
2022-09-28T03:23:12.339Z,98678.72
2022-09-28T03:23:54.161Z,98678.23
2022-09-28T03:24:58.294Z,98677.91
2022-09-28T03:26:01.706Z,98679.58
2022-09-28T03:27:06.422Z,98675.58
2022-09-28T03:28:09.589Z,98676.73
2022-09-28T03:29:14.742Z,98676.22
2022-09-28T03:30:19.162Z,98674.05
2022-09-28T03:31:23.532Z,98668.55
2022-09-28T03:32:26.494Z,98671.95
2022-09-28T03:33:28.852Z,98673.47
2022-09-28T03:34:32.144Z,98676.47
2022-09-28T03:35:35.560Z,98672.13
2022-09-28T03:36:38.351Z,98676.47
2022-09-28T03:37:43.742Z,98673.45
2022-09-28T03:38:48.076Z,98681.65
2022-09-28T03:39:52.282Z,98675.29
2022-09-28T03:40:56.851Z,98676.79
2022-09-28T03:42:00.441Z,98671.60
2022-09-28T03:43:03.632Z,98679.75
2022-09-28T03:44:07.347Z,98674.22
2022-09-28T03:45:10.331Z,98663.94
2022-09-28T03:46:13.113Z,98665.95
2022-09-28T03:47:18.571Z,98664.94
2022-09-28T03:48:28.682Z,98661.27
2022-09-28T03:49:30.093Z,98659.91
2022-09-28T03:50:33.807Z,98664.43
2022-09-28T03:51:38.563Z,98669.95
2022-09-28T03:52:43.428Z,98664.60
2022-09-28T03:53:47.445Z,98675.97
2022-09-28T03:54:50.638Z,98671.11
2022-09-28T03:55:54.468Z,98670.28
2022-09-28T03:56:57.762Z,98671.80
2022-09-28T03:58:00.108Z,98668.95
2022-09-28T03:59:05.075Z,98666.16
2022-09-28T04:00:09.975Z,98663.82
2022-09-28T04:01:19.157Z,98667.33
2022-09-28T04:02:26.121Z,98671.30
2022-09-28T04:03:29.433Z,98675.48
2022-09-28T04:04:32.940Z,98672.46
2022-09-28T04:05:36.349Z,98669.27
2022-09-28T04:06:39.845Z,98676.81
2022-09-28T04:07:42.733Z,98676.31
2022-09-28T04:08:47.795Z,98677.98
2022-09-28T04:09:53.944Z,98684.69
2022-09-28T04:10:58.473Z,98682.84
2022-09-28T04:12:04.349Z,98683.68
2022-09-28T04:13:10.070Z,98686.02
2022-09-28T04:14:14.418Z,98685.52
2022-09-28T04:15:18.687Z,98684.69
2022-09-28T04:16:22.624Z,98685.39
2022-09-28T04:17:27.886Z,98682.72
2022-09-28T04:18:35.345Z,98686.90
2022-09-28T04:19:52.490Z,98694.88
2022-09-28T04:21:03.995Z,98689.23
2022-09-28T04:22:13.814Z,98689.70
2022-09-28T04:23:17.028Z,98695.55
2022-09-28T04:24:20.638Z,98688.35
2022-09-28T04:25:24.341Z,98695.55
2022-09-28T04:26:28.174Z,98696.20
2022-09-28T04:27:52.075Z,98690.52
2022-09-28T04:29:15.183Z,98696.38
2022-09-28T04:30:21.614Z,98689.02
2022-09-28T04:31:25.115Z,98687.00
2022-09-28T04:32:27.580Z,98680.32
2022-09-28T04:33:33.035Z,98683.48
2022-09-28T04:34:39.612Z,98682.95
2022-09-28T04:35:41.959Z,98682.95
2022-09-28T04:36:46.403Z,98673.62
2022-09-28T04:37:49.587Z,98673.62
2022-09-28T04:38:53.600Z,98677.30
2022-09-28T04:39:59.215Z,98681.82
2022-09-28T04:41:03.930Z,98676.79
2022-09-28T04:42:10.394Z,98684.61
2022-09-28T04:43:15.476Z,98679.09
2022-09-28T04:44:18.249Z,98685.77
2022-09-28T04:45:23.728Z,98679.92
2022-09-28T04:46:28.500Z,98684.45
2022-09-28T04:47:38.156Z,98681.10
2022-09-28T04:48:46.893Z,98690.80
2022-09-28T04:49:51.954Z,98689.51
2022-09-28T04:50:57.338Z,98694.31
2022-09-28T04:52:00.228Z,98691.64
2022-09-28T04:53:04.021Z,98688.84
2022-09-28T04:54:07.549Z,98692.30
2022-09-28T04:55:13.738Z,98701.34
2022-09-28T04:56:18.246Z,98690.95
2022-09-28T04:57:21.498Z,98689.45
2022-09-28T04:58:24.938Z,98702.00
2022-09-28T04:59:31.609Z,98695.53
2022-09-28T05:00:38.962Z,98699.67
2022-09-28T05:01:56.312Z,98692.48
2022-09-28T05:03:18.402Z,98694.47
2022-09-28T05:04:39.674Z,98696.14
2022-09-28T05:05:45.895Z,98693.12
2022-09-28T05:07:06.623Z,98697.46
2022-09-28T05:08:11.745Z,98693.12
2022-09-28T05:09:18.628Z,98700.59
2022-09-28T05:10:23.000Z,98698.76
2022-09-28T05:11:27.641Z,98701.27
2022-09-28T05:12:31.670Z,98694.73
2022-09-28T05:13:41.033Z,98705.09
2022-09-28T05:14:44.048Z,98700.23
2022-09-28T05:15:48.034Z,98696.55
2022-09-28T05:16:52.115Z,98697.72
2022-09-28T05:18:00.210Z,98692.02
2022-09-28T05:19:09.347Z,98690.87
2022-09-28T05:20:13.751Z,98690.73
2022-09-28T05:21:21.444Z,98688.22
2022-09-28T05:22:24.950Z,98691.22
2022-09-28T05:23:28.443Z,98693.86
2022-09-28T05:24:33.306Z,98695.05
2022-09-28T05:25:36.824Z,98697.55
2022-09-28T05:26:44.703Z,98700.23
2022-09-28T05:27:51.390Z,98687.47
2022-09-28T05:29:02.263Z,98693.66
2022-09-28T05:30:20.007Z,98688.13
2022-09-28T05:31:25.280Z,98693.48
2022-09-28T05:32:49.774Z,98699.56
2022-09-28T05:34:00.997Z,98684.09
2022-09-28T05:35:06.847Z,98690.70
2022-09-28T05:37:24.872Z,98689.11
2022-09-28T05:38:29.945Z,98681.07
2022-09-28T05:39:33.449Z,98691.05
2022-09-28T05:40:39.092Z,98688.20
2022-09-28T05:41:42.451Z,98683.23
2022-09-28T05:42:46.062Z,98683.58
2022-09-28T05:43:53.186Z,98682.14
2022-09-28T05:44:58.887Z,98684.23
2022-09-28T05:46:02.370Z,98686.34
2022-09-28T05:47:04.889Z,98679.44
2022-09-28T05:48:08.797Z,98684.09
2022-09-28T05:49:12.164Z,98692.22
2022-09-28T05:50:16.248Z,98693.53
2022-09-28T05:51:19.051Z,98695.82
2022-09-28T05:52:23.797Z,98693.31
2022-09-28T05:53:26.996Z,98696.88
2022-09-28T05:54:30.464Z,98699.56
2022-09-28T05:55:34.910Z,98696.45
2022-09-28T05:56:37.911Z,98704.48
2022-09-28T05:57:43.175Z,98700.09
2022-09-28T05:58:47.408Z,98697.98
2022-09-28T05:59:51.646Z,98708.08
2022-09-28T06:00:56.350Z,98710.64
2022-09-28T06:01:58.796Z,98704.80
2022-09-28T06:03:08.670Z,98711.08
2022-09-28T06:04:11.203Z,98711.52
2022-09-28T06:05:15.475Z,98709.14
2022-09-28T06:06:21.035Z,98711.77
2022-09-28T06:07:24.953Z,98711.16
2022-09-28T06:08:27.926Z,98716.43
2022-09-28T06:09:33.468Z,98714.70
2022-09-28T06:10:43.043Z,98717.65
2022-09-28T06:11:46.493Z,98714.97
2022-09-28T06:12:56.057Z,98711.42
2022-09-28T06:14:00.098Z,98712.26
2022-09-28T06:15:07.683Z,98707.07
2022-09-28T06:16:12.769Z,98708.38
2022-09-28T06:17:17.794Z,98702.30
2022-09-28T06:18:23.087Z,98698.51
2022-09-28T06:19:43.257Z,98701.17
2022-09-28T06:21:03.519Z,98702.66
2022-09-28T06:22:09.458Z,98707.37
2022-09-28T06:23:19.304Z,98705.05
2022-09-28T06:24:22.692Z,98705.87
2022-09-28T06:25:31.566Z,98700.91
2022-09-28T06:26:35.135Z,98703.85
2022-09-28T06:27:39.997Z,98708.56
2022-09-28T06:28:44.442Z,98703.67
2022-09-28T06:29:47.842Z,98703.13
2022-09-28T06:30:51.404Z,98705.90
2022-09-28T06:31:55.279Z,98697.41
2022-09-28T06:32:59.923Z,98704.98
2022-09-28T06:34:04.308Z,98696.76
2022-09-28T06:35:09.252Z,98702.56
2022-09-28T06:36:12.644Z,98696.58
2022-09-28T06:37:16.044Z,98694.81
2022-09-28T06:38:18.911Z,98699.64
2022-09-28T06:39:22.637Z,98696.20
2022-09-28T06:40:29.016Z,98695.18
2022-09-28T06:41:34.660Z,98702.04
2022-09-28T06:42:41.705Z,98696.84
2022-09-28T06:43:50.223Z,98692.77
2022-09-28T06:45:12.006Z,98693.39
2022-09-28T06:46:33.065Z,98693.39
2022-09-28T06:47:59.589Z,98696.97
2022-09-28T06:49:16.099Z,98692.08
2022-09-28T06:50:34.649Z,98692.11
2022-09-28T06:51:56.757Z,98691.83
2022-09-28T06:53:09.248Z,98686.47
2022-09-28T06:54:26.838Z,98690.44
2022-09-28T06:55:33.079Z,98694.19
2022-09-28T06:56:37.326Z,98688.92
2022-09-28T06:57:40.583Z,98692.02
2022-09-28T06:58:44.003Z,98687.94
2022-09-28T06:59:48.334Z,98694.31
2022-09-28T07:00:58.380Z,98699.59
2022-09-28T07:02:02.495Z,98692.56
2022-09-28T07:03:26.944Z,98696.25
2022-09-28T07:04:38.179Z,98690.98
2022-09-28T07:05:45.144Z,98688.74
2022-09-28T07:07:09.350Z,98687.73
2022-09-28T07:08:33.094Z,98689.84
2022-09-28T07:09:45.010Z,98692.08
2022-09-28T07:11:01.924Z,98686.54
2022-09-28T07:12:08.962Z,98690.91
2022-09-28T07:13:43.350Z,98690.20
2022-09-28T07:14:44.974Z,98695.64
2022-09-28T07:15:30.787Z,98693.62
2022-09-28T07:17:00.722Z,98693.59
2022-09-28T07:17:54.484Z,98697.13
2022-09-28T07:18:45.374Z,98689.44
2022-09-28T07:19:54.717Z,98689.98
2022-09-28T07:20:58.791Z,98689.04
2022-09-28T07:22:05.569Z,98687.49
2022-09-28T07:23:18.970Z,98681.85
2022-09-28T07:24:35.802Z,98682.23
2022-09-28T07:25:59.793Z,98680.38
2022-09-28T07:27:07.964Z,98677.53
2022-09-28T07:28:13.473Z,98672.67
2022-09-28T07:29:21.563Z,98665.22
2022-09-28T07:30:37.204Z,98676.05
2022-09-28T07:31:44.889Z,98666.59
2022-09-28T07:32:50.010Z,98670.16
2022-09-28T07:34:08.066Z,98671.31
2022-09-28T07:35:16.628Z,98668.87
2022-09-28T07:36:30.857Z,98659.84
2022-09-28T07:37:36.233Z,98665.07
2022-09-28T07:38:39.852Z,98665.47
2022-09-28T07:40:01.012Z,98659.91
2022-09-28T07:41:13.748Z,98659.33
2022-09-28T07:42:18.883Z,98659.23
2022-09-28T07:43:23.107Z,98659.01
2022-09-28T07:44:30.278Z,98660.03
2022-09-28T07:45:40.077Z,98656.87
2022-09-28T07:46:44.277Z,98662.48
2022-09-28T07:47:49.672Z,98656.81
2022-09-28T07:49:09.828Z,98657.38
2022-09-28T07:50:31.765Z,98662.75
2022-09-28T07:51:36.943Z,98660.70
2022-09-28T07:52:58.202Z,98665.75
2022-09-28T07:54:08.103Z,98665.27
2022-09-28T07:55:15.249Z,98663.10
2022-09-28T07:56:21.163Z,98662.77
2022-09-28T07:57:28.727Z,98658.51
2022-09-28T07:58:50.508Z,98659.87
2022-09-28T07:59:55.580Z,98662.42
2022-09-28T08:01:06.263Z,98654.09
2022-09-28T08:02:11.292Z,98654.55
2022-09-28T08:03:19.467Z,98659.51
2022-09-28T08:04:26.875Z,98652.91
2022-09-28T08:05:32.954Z,98664.22
2022-09-28T08:06:36.037Z,98649.21
2022-09-28T08:07:41.632Z,98656.56
2022-09-28T08:08:47.130Z,98652.63
2022-09-28T08:09:52.622Z,98655.29
2022-09-28T08:11:08.649Z,98655.31
2022-09-28T08:12:19.468Z,98657.28
2022-09-28T08:13:30.622Z,98647.62
2022-09-28T08:14:36.901Z,98653.55
2022-09-28T08:15:50.870Z,98652.63
2022-09-28T08:16:58.762Z,98657.42
2022-09-28T08:18:04.888Z,98653.85
2022-09-28T08:19:09.693Z,98663.72
2022-09-28T08:20:31.325Z,98657.50
2022-09-28T08:21:48.190Z,98657.23
2022-09-28T08:22:50.562Z,98651.94
2022-09-28T08:23:54.678Z,98648.22
2022-09-28T08:24:57.985Z,98651.15
2022-09-28T08:26:02.429Z,98660.58
2022-09-28T08:27:05.934Z,98653.47
2022-09-28T08:28:11.040Z,98657.77
2022-09-28T08:29:16.394Z,98653.72
2022-09-28T08:30:27.963Z,98648.28
2022-09-28T08:31:50.348Z,98653.05
2022-09-28T08:34:11.553Z,98668.53
2022-09-28T08:35:33.349Z,98667.27
2022-09-28T08:36:44.927Z,98681.95
2022-09-28T08:38:07.826Z,98669.78
2022-09-28T08:39:28.776Z,98670.95
2022-09-28T08:40:36.002Z,98665.97
2022-09-28T08:41:53.321Z,98664.63
2022-09-28T08:43:03.835Z,98662.36
2022-09-28T08:44:26.959Z,98655.27
2022-09-28T08:45:37.282Z,98662.38
2022-09-28T08:46:50.749Z,98660.66
2022-09-28T08:48:34.100Z,98668.47
2022-09-28T08:49:50.970Z,98675.78
2022-09-28T08:51:00.062Z,98669.97
2022-09-28T08:52:18.143Z,98676.40
2022-09-28T08:53:40.867Z,98672.42
2022-09-28T08:55:02.645Z,98672.58
2022-09-28T08:56:18.158Z,98674.03
2022-09-28T08:57:25.963Z,98674.80
2022-09-28T08:58:31.237Z,98672.94
2022-09-28T08:59:41.625Z,98665.94
2022-09-28T09:00:50.210Z,98652.63
2022-09-28T09:01:57.975Z,98663.47
2022-09-28T09:03:08.120Z,98665.45
2022-09-28T09:04:13.291Z,98661.53
2022-09-28T09:05:41.319Z,98652.49
2022-09-28T09:06:45.791Z,98655.73
2022-09-28T09:08:12.484Z,98656.64
2022-09-28T09:09:19.355Z,98664.34
2022-09-28T09:10:26.925Z,98657.09
2022-09-28T09:11:38.859Z,98660.23
2022-09-28T09:13:03.402Z,98660.46
2022-09-28T09:14:13.825Z,98662.48
2022-09-28T09:15:24.778Z,98662.96
2022-09-28T09:16:32.748Z,98663.47
2022-09-28T09:17:44.355Z,98665.89
2022-09-28T09:19:08.119Z,98665.98
2022-09-28T09:20:20.958Z,98672.03
2022-09-28T09:21:41.442Z,98673.69
2022-09-28T09:22:55.914Z,98679.73
2022-09-28T09:24:02.353Z,98680.11
2022-09-28T09:25:18.811Z,98677.70
2022-09-28T09:26:26.105Z,98672.70
2022-09-28T09:27:31.553Z,98669.02
2022-09-28T09:28:55.322Z,98671.88
2022-09-28T09:30:05.419Z,98668.45
2022-09-28T09:31:12.331Z,98665.34
2022-09-28T09:32:24.334Z,98666.86
2022-09-28T09:33:49.252Z,98659.80
2022-09-28T09:35:14.576Z,98668.45
2022-09-28T09:37:58.497Z,98671.27
2022-09-28T09:39:41.871Z,98668.86
2022-09-28T09:42:41.137Z,98676.09
2022-09-28T09:44:04.874Z,98674.31
2022-09-28T09:45:29.896Z,98668.59
2022-09-28T09:46:35.895Z,98665.45
2022-09-28T09:47:43.920Z,98671.94
2022-09-28T09:49:08.820Z,98663.36
2022-09-28T09:50:20.773Z,98671.47
2022-09-28T09:51:30.212Z,98671.77
2022-09-28T09:52:38.780Z,98667.72
2022-09-28T09:53:45.863Z,98669.06
2022-09-28T09:54:56.836Z,98667.75
2022-09-28T09:56:24.894Z,98666.34
2022-09-28T09:57:34.561Z,98670.70
2022-09-28T09:58:40.891Z,98670.37
2022-09-28T09:59:52.527Z,98679.69
2022-09-28T10:01:05.402Z,98680.93
2022-09-28T10:02:12.654Z,98676.36
2022-09-28T10:03:21.747Z,98674.94
2022-09-28T10:04:30.222Z,98679.27
2022-09-28T10:05:37.252Z,98676.11
2022-09-28T10:06:45.195Z,98680.75
2022-09-28T10:07:53.725Z,98672.50
2022-09-28T10:08:59.362Z,98676.61
2022-09-28T10:10:03.762Z,98686.59
2022-09-28T10:11:14.094Z,98680.75
2022-09-28T10:12:20.594Z,98680.15
2022-09-28T10:13:24.220Z,98673.91
2022-09-28T10:14:31.972Z,98681.39
2022-09-28T10:15:38.016Z,98680.34
2022-09-28T10:16:45.666Z,98682.02
2022-09-28T10:17:53.393Z,98686.59
2022-09-28T10:19:18.239Z,98684.70
2022-09-28T10:20:40.286Z,98694.68
2022-09-28T10:21:50.997Z,98685.95
2022-09-28T10:23:02.514Z,98698.20
2022-09-28T10:24:08.051Z,98696.54
2022-09-28T10:25:13.095Z,98691.94
2022-09-28T10:26:26.514Z,98693.40
2022-09-28T10:27:34.948Z,98685.69
2022-09-28T10:28:42.563Z,98681.95
2022-09-28T10:29:49.271Z,98686.74
2022-09-28T10:30:53.808Z,98681.75
2022-09-28T10:31:57.012Z,98683.63
2022-09-28T10:33:03.230Z,98684.36
2022-09-28T10:34:13.612Z,98678.41
2022-09-28T10:35:19.538Z,98678.14
2022-09-28T10:36:27.836Z,98684.05
2022-09-28T10:37:31.351Z,98678.20
2022-09-28T10:38:45.409Z,98679.91
2022-09-28T10:39:57.291Z,98679.92
2022-09-28T10:41:03.923Z,98685.59
2022-09-28T10:42:17.540Z,98678.37
2022-09-28T10:43:33.854Z,98676.91
2022-09-28T10:44:39.686Z,98683.53
2022-09-28T10:45:52.633Z,98680.20
2022-09-28T10:46:58.809Z,98679.33
2022-09-28T10:48:04.936Z,98687.89
2022-09-28T10:49:19.043Z,98677.94
2022-09-28T10:50:27.959Z,98691.25
2022-09-28T10:51:54.927Z,98676.00
2022-09-28T10:53:14.211Z,98677.27
2022-09-28T10:54:38.494Z,98669.58
2022-09-28T10:55:42.397Z,98673.94
2022-09-28T10:56:48.153Z,98677.81
2022-09-28T10:57:52.982Z,98670.77
2022-09-28T10:58:56.792Z,98670.84
2022-09-28T11:00:03.334Z,98666.25
2022-09-28T11:01:10.399Z,98668.15
2022-09-28T11:02:18.098Z,98671.08
2022-09-28T11:03:24.088Z,98665.69
2022-09-28T11:04:32.904Z,98667.62
2022-09-28T11:05:39.155Z,98673.20
2022-09-28T11:06:44.317Z,98665.57
2022-09-28T11:07:49.222Z,98670.38
2022-09-28T11:08:56.548Z,98672.06
2022-09-28T11:10:02.456Z,98673.72
2022-09-28T11:11:09.522Z,98670.80
2022-09-28T11:12:16.778Z,98669.17
2022-09-28T11:13:20.281Z,98672.29
2022-09-28T11:14:31.446Z,98668.10
2022-09-28T11:15:35.336Z,98669.35
2022-09-28T11:16:41.533Z,98667.90
2022-09-28T11:17:46.931Z,98671.82
2022-09-28T11:18:52.628Z,98665.41
2022-09-28T11:19:57.281Z,98659.78
2022-09-28T11:21:16.727Z,98656.47
2022-09-28T11:22:26.245Z,98658.95
2022-09-28T11:23:31.310Z,98665.41
2022-09-28T11:24:37.007Z,98668.31
2022-09-28T11:25:43.054Z,98668.08
2022-09-28T11:26:49.430Z,98670.13
2022-09-28T11:27:56.609Z,98673.45
2022-09-28T11:28:58.744Z,98668.50
2022-09-28T11:30:03.219Z,98669.95
2022-09-28T11:31:07.789Z,98660.00
2022-09-28T11:32:33.540Z,98664.98
2022-09-28T11:35:12.672Z,98661.07
2022-09-28T11:36:20.054Z,98657.52
2022-09-28T11:37:33.994Z,98658.75
2022-09-28T11:38:55.056Z,98651.69
2022-09-28T11:40:06.395Z,98660.59
2022-09-28T11:41:22.955Z,98652.47
2022-09-28T11:42:29.270Z,98651.27
2022-09-28T11:43:51.376Z,98650.86
2022-09-28T11:44:59.372Z,98659.18
2022-09-28T11:46:03.545Z,98652.48
2022-09-28T11:47:11.489Z,98657.88
2022-09-28T11:48:31.916Z,98650.34
2022-09-28T11:49:44.517Z,98656.66
2022-09-28T11:50:59.398Z,98653.14
2022-09-28T11:52:04.274Z,98650.84
2022-09-28T11:53:18.332Z,98655.63
2022-09-28T11:54:30.644Z,98652.13
2022-09-28T11:55:45.698Z,98661.47
2022-09-28T11:56:51.180Z,98655.87
2022-09-28T11:58:04.514Z,98656.48
2022-09-28T11:59:27.022Z,98656.70
2022-09-28T12:00:32.519Z,98651.71
2022-09-28T12:01:38.771Z,98651.71
2022-09-28T12:02:52.925Z,98649.00
2022-09-28T12:04:01.011Z,98654.19
2022-09-28T12:05:19.863Z,98652.31
2022-09-28T12:06:21.894Z,98651.08
2022-09-28T12:07:30.513Z,98657.20
2022-09-28T12:08:37.477Z,98655.91
2022-09-28T12:09:44.636Z,98651.55
2022-09-28T12:10:54.864Z,98658.40
2022-09-28T12:12:02.409Z,98651.18
2022-09-28T12:13:21.473Z,98655.94
2022-09-28T12:14:32.259Z,98657.33
2022-09-28T12:16:06.878Z,98660.63
2022-09-28T12:18:07.923Z,98660.42
2022-09-28T12:19:15.640Z,98668.25
2022-09-28T12:20:20.616Z,98662.67
2022-09-28T12:21:37.279Z,98658.17
2022-09-28T12:22:44.137Z,98669.54
2022-09-28T12:23:49.337Z,98666.20
2022-09-28T12:24:54.181Z,98663.39
2022-09-28T12:26:02.893Z,98666.09
2022-09-28T12:27:07.338Z,98669.18
2022-09-28T12:28:16.076Z,98664.35
2022-09-28T12:29:21.463Z,98663.47
2022-09-28T12:30:26.429Z,98664.14
2022-09-28T12:31:30.977Z,98664.73
2022-09-28T12:32:38.973Z,98666.01
2022-09-28T12:33:43.211Z,98662.05
2022-09-28T12:34:46.497Z,98665.66
2022-09-28T12:35:57.743Z,98668.86
2022-09-28T12:37:10.425Z,98674.14
2022-09-28T12:38:26.267Z,98672.98
2022-09-28T12:39:56.530Z,98661.63
2022-09-28T12:40:50.678Z,98670.13
2022-09-28T12:41:56.523Z,98675.10
2022-09-28T12:43:07.651Z,98672.81
2022-09-28T12:44:17.841Z,98668.88
2022-09-28T12:45:25.315Z,98667.84
2022-09-28T12:46:39.013Z,98669.53
2022-09-28T12:47:44.339Z,98665.39
2022-09-28T12:49:24.113Z,98665.00
2022-09-28T12:51:24.297Z,98673.48
2022-09-28T12:52:46.504Z,98673.89
2022-09-28T12:54:03.478Z,98669.75
2022-09-28T12:55:18.366Z,98670.73
2022-09-28T12:56:26.340Z,98667.64
2022-09-28T12:57:48.876Z,98665.34
2022-09-28T12:58:56.048Z,98667.84
2022-09-28T13:00:02.372Z,98665.75
2022-09-28T13:01:15.768Z,98659.95
2022-09-28T13:02:25.204Z,98676.64
2022-09-28T13:03:33.883Z,98675.44
2022-09-28T13:04:44.625Z,98677.54
2022-09-28T13:06:08.154Z,98668.25
2022-09-28T13:07:15.941Z,98673.25
2022-09-28T13:08:26.131Z,98669.68
2022-09-28T13:09:33.120Z,98672.17
2022-09-28T13:10:39.428Z,98672.42
2022-09-28T13:11:50.433Z,98672.64
2022-09-28T13:13:11.904Z,98669.73
2022-09-28T13:14:34.318Z,98673.50
2022-09-28T13:15:42.251Z,98675.53
2022-09-28T13:16:48.522Z,98660.53
2022-09-28T13:17:56.618Z,98656.20
2022-09-28T13:19:01.589Z,98655.39
2022-09-28T13:20:05.927Z,98661.03
2022-09-28T13:21:11.013Z,98664.92
2022-09-28T13:22:27.885Z,98662.36
2022-09-28T13:23:36.195Z,98659.27
2022-09-28T13:24:42.692Z,98665.25
2022-09-28T13:25:50.619Z,98663.55
2022-09-28T13:26:55.159Z,98663.75
2022-09-28T13:28:02.954Z,98668.27
2022-09-28T13:29:07.956Z,98663.31
2022-09-28T13:30:14.971Z,98671.20
2022-09-28T13:31:20.365Z,98670.37
2022-09-28T13:32:28.739Z,98668.27
2022-09-28T13:33:35.735Z,98666.36
2022-09-28T13:34:39.748Z,98668.02
2022-09-28T13:35:45.612Z,98670.33